Terminal Aerodrome Forecast
Issued by NWS

Home | Current Version | Previous Version | Text Only | Print | Product List | Glossary On
Versions: 1 2 3 4 5 6 7 8 9 10 11 12 13 14 15 16 17 18 19 20 21 22 23 24
000
FTUS43 KILX 051932 AAA
TAFBMI
TAF AMD
KBMI 051932Z 0520/0618 23012KT P6SM SCT070 BKN250
     FM052200 06005KT P6SM SCT070 BKN250
     FM060700 10005KT 4SM BR SCT250
     FM061400 18010KT P6SM SCT250=

USA.gov is the U.S. government's official web portal to all federal, state and local government web resources and services.